createdAt,value
2019-05-11T00:02:16.843Z,99.90
2019-05-11T00:04:47.302Z,99.90
2019-05-11T00:07:17.858Z,99.90
2019-05-11T00:09:57.376Z,99.90
2019-05-11T00:12:20.514Z,99.90
2019-05-11T00:14:50.999Z,99.90
2019-05-11T00:17:21.550Z,99.90
2019-05-11T00:19:52.014Z,99.90
2019-05-11T00:22:22.497Z,99.90
2019-05-11T00:24:52.980Z,99.90
2019-05-11T00:27:23.488Z,99.90
2019-05-11T00:29:53.945Z,99.90
2019-05-11T00:32:24.510Z,99.90
2019-05-11T00:34:54.963Z,99.90
2019-05-11T00:37:25.442Z,99.90
2019-05-11T00:39:55.894Z,99.90
2019-05-11T00:42:26.365Z,99.90
2019-05-11T00:44:56.852Z,99.90
2019-05-11T00:47:27.330Z,99.90
2019-05-11T00:49:57.795Z,99.90
2019-05-11T00:52:28.276Z,99.90
2019-05-11T00:54:58.868Z,99.90
2019-05-11T00:57:29.356Z,99.90
2019-05-11T00:59:59.827Z,99.90
2019-05-11T01:02:30.314Z,99.90
2019-05-11T01:05:00.794Z,99.90
2019-05-11T01:07:31.269Z,99.90
2019-05-11T01:10:01.716Z,99.90
2019-05-11T01:12:32.204Z,99.90
2019-05-11T01:15:02.748Z,99.90
2019-05-11T01:17:33.233Z,99.90
2019-05-11T01:20:05.391Z,99.90
2019-05-11T01:22:35.877Z,99.90
2019-05-11T01:25:07.480Z,99.90
2019-05-11T01:27:37.943Z,99.90
2019-05-11T01:30:09.188Z,99.90
2019-05-11T01:32:39.682Z,99.90
2019-05-11T01:35:10.800Z,99.90
2019-05-11T01:37:41.281Z,99.90
2019-05-11T01:40:12.327Z,99.90
2019-05-11T01:42:42.801Z,99.90
2019-05-11T01:45:13.605Z,99.90
2019-05-11T01:47:44.067Z,99.90
2019-05-11T01:50:14.641Z,99.90
2019-05-11T01:52:45.092Z,99.90
2019-05-11T01:55:15.665Z,99.90
2019-05-11T01:57:46.116Z,99.90
2019-05-11T02:00:16.672Z,99.90
2019-05-11T02:02:47.137Z,99.90
2019-05-11T02:05:30.501Z,99.90
2019-05-11T02:08:02.697Z,99.90
2019-05-11T02:10:33.547Z,99.90
2019-05-11T02:13:03.997Z,99.90
2019-05-11T02:15:34.478Z,99.90
2019-05-11T02:18:05.074Z,99.90
2019-05-11T02:20:35.635Z,99.90
2019-05-11T02:23:06.075Z,99.90
2019-05-11T02:25:36.560Z,99.90
2019-05-11T02:28:08.923Z,99.90
2019-05-11T02:30:39.485Z,99.90
2019-05-11T02:33:10.004Z,99.90
2019-05-11T02:35:41.033Z,99.90
2019-05-11T02:38:11.473Z,99.90
2019-05-11T02:40:41.968Z,99.90
2019-05-11T02:43:12.427Z,99.90
2019-05-11T02:45:43.757Z,99.90
2019-05-11T02:48:14.357Z,99.90
2019-05-11T02:50:45.186Z,99.90
2019-05-11T02:53:16.221Z,99.90
2019-05-11T02:55:48.694Z,99.90
2019-05-11T02:58:19.324Z,99.90
2019-05-11T03:00:49.830Z,99.90
2019-05-11T03:03:20.320Z,99.90
2019-05-11T03:05:50.798Z,99.90
2019-05-11T03:08:21.269Z,99.90
2019-05-11T03:10:52.394Z,99.90
2019-05-11T03:13:22.883Z,99.90
2019-05-11T03:15:55.719Z,99.90
2019-05-11T03:18:26.208Z,99.90
2019-05-11T03:20:56.710Z,99.90
2019-05-11T03:23:27.177Z,99.90
2019-05-11T03:25:57.690Z,99.90
2019-05-11T03:28:28.184Z,99.90
2019-05-11T03:30:58.662Z,99.90
2019-05-11T03:33:29.160Z,99.90
2019-05-11T03:35:59.649Z,99.90
2019-05-11T03:38:30.139Z,99.90
2019-05-11T03:41:00.595Z,99.90
2019-05-11T03:43:31.099Z,99.90
2019-05-11T03:46:01.580Z,99.90
2019-05-11T03:48:32.078Z,99.90
2019-05-11T03:51:03.135Z,99.90
2019-05-11T03:53:35.324Z,99.90
2019-05-11T03:56:07.335Z,99.90
2019-05-11T03:58:37.839Z,99.90
2019-05-11T04:01:08.362Z,99.90
2019-05-11T04:03:38.842Z,99.90
2019-05-11T04:06:09.297Z,99.90
2019-05-11T04:08:39.790Z,99.90
2019-05-11T04:11:10.236Z,99.90
2019-05-11T04:13:40.720Z,99.90
2019-05-11T04:16:11.203Z,99.90
2019-05-11T04:18:41.699Z,99.90
2019-05-11T04:21:12.167Z,99.90
2019-05-11T04:23:42.663Z,99.90
2019-05-11T04:26:13.137Z,99.90
2019-05-11T04:28:43.622Z,99.90
2019-05-11T04:31:14.070Z,99.90
2019-05-11T04:33:44.559Z,99.90
2019-05-11T04:36:15.061Z,99.90
2019-05-11T04:38:45.507Z,99.90
2019-05-11T04:41:15.992Z,99.90
2019-05-11T04:43:46.469Z,99.90
2019-05-11T04:46:16.963Z,99.90
2019-05-11T04:48:47.454Z,99.90
2019-05-11T04:51:17.940Z,99.90
2019-05-11T04:53:48.415Z,99.90
2019-05-11T04:56:18.921Z,99.90
2019-05-11T04:58:49.382Z,99.90
2019-05-11T05:01:19.948Z,99.90
2019-05-11T05:03:54.280Z,99.90
2019-05-11T05:06:24.532Z,99.90
2019-05-11T05:08:58.099Z,99.90
2019-05-11T05:11:30.717Z,99.90
2019-05-11T05:14:01.901Z,99.90
2019-05-11T05:16:31.649Z,99.90
2019-05-11T05:19:02.247Z,99.90
2019-05-11T05:21:32.709Z,99.90
2019-05-11T05:24:03.279Z,99.90
2019-05-11T05:26:33.734Z,99.90
2019-05-11T05:29:04.228Z,99.90
2019-05-11T05:31:34.723Z,99.90
2019-05-11T05:34:05.407Z,99.90
2019-05-11T05:36:35.870Z,99.90
2019-05-11T05:39:09.177Z,99.90
2019-05-11T05:41:40.030Z,99.90
2019-05-11T05:44:10.495Z,99.90
2019-05-11T05:46:41.149Z,99.90
2019-05-11T05:49:11.633Z,99.90
2019-05-11T05:51:42.171Z,99.90
2019-05-11T05:54:12.735Z,99.90
2019-05-11T05:56:43.275Z,99.90
2019-05-11T05:59:13.794Z,99.90
2019-05-11T06:01:44.230Z,99.90
2019-05-11T06:04:14.732Z,99.90
2019-05-11T06:06:45.188Z,99.90
2019-05-11T06:09:15.671Z,99.90
2019-05-11T06:11:46.152Z,99.90
2019-05-11T06:14:16.629Z,99.90
2019-05-11T06:16:47.089Z,99.90
2019-05-11T06:19:18.851Z,99.90
2019-05-11T06:21:49.312Z,99.90
2019-05-11T06:24:19.804Z,99.90
2019-05-11T06:26:50.309Z,99.90
2019-05-11T06:29:21.805Z,99.90
2019-05-11T06:31:52.669Z,99.90
2019-05-11T06:34:23.166Z,99.90
2019-05-11T06:36:53.817Z,99.90
2019-05-11T06:39:24.335Z,99.90
2019-05-11T06:41:54.782Z,99.90
2019-05-11T06:44:25.265Z,99.90
2019-05-11T06:46:55.752Z,99.90
2019-05-11T06:49:26.278Z,99.90
2019-05-11T06:51:56.756Z,99.90
2019-05-11T06:54:27.235Z,99.90
2019-05-11T06:56:57.805Z,99.90
2019-05-11T06:59:28.250Z,99.90
2019-05-11T07:01:58.803Z,99.90
2019-05-11T07:04:29.285Z,99.90
2019-05-11T07:06:59.795Z,99.90
2019-05-11T07:09:30.258Z,99.90
2019-05-11T07:12:00.894Z,99.90
2019-05-11T07:14:31.771Z,99.90
2019-05-11T07:17:02.310Z,99.90
2019-05-11T07:19:32.824Z,99.90
2019-05-11T07:22:03.320Z,99.90
2019-05-11T07:24:33.879Z,99.90
2019-05-11T07:27:04.359Z,99.90
2019-05-11T07:29:34.853Z,99.90
2019-05-11T07:32:15.290Z,99.90
2019-05-11T07:34:38.398Z,99.90
2019-05-11T07:37:08.946Z,99.90
2019-05-11T07:39:39.493Z,99.90
2019-05-11T07:42:09.968Z,99.90
2019-05-11T07:44:42.052Z,99.90
2019-05-11T07:47:12.766Z,99.90
2019-05-11T07:49:43.270Z,99.90
2019-05-11T07:52:13.957Z,99.60
2019-05-11T07:54:44.450Z,99.40
2019-05-11T07:57:14.919Z,99.30
2019-05-11T07:59:45.418Z,99.60
2019-05-11T08:02:17.779Z,99.30
2019-05-11T08:04:48.280Z,99.10
2019-05-11T08:07:18.772Z,99.30
2019-05-11T08:09:49.225Z,98.70
2019-05-11T08:12:20.517Z,98.60
2019-05-11T08:14:58.852Z,99.40
2019-05-11T08:17:23.219Z,99.60
2019-05-11T08:19:53.691Z,99.40
2019-05-11T08:22:24.190Z,98.70
2019-05-11T08:24:54.689Z,98.20
2019-05-11T08:27:25.167Z,97.50
2019-05-11T08:29:57.865Z,97.30
2019-05-11T08:32:28.732Z,97.10
2019-05-11T08:35:00.054Z,97.50
2019-05-11T08:37:31.673Z,97.20
2019-05-11T08:40:02.149Z,96.10
2019-05-11T08:42:32.639Z,94.90
2019-05-11T08:45:16.191Z,94.50
2019-05-11T08:47:37.576Z,93.60
2019-05-11T08:50:09.864Z,93.80
2019-05-11T08:52:40.339Z,93.80
2019-05-11T08:55:11.039Z,92.90
2019-05-11T08:57:42.683Z,91.60
2019-05-11T09:00:19.540Z,91.40
2019-05-11T09:02:50.993Z,92.10
2019-05-11T09:05:21.784Z,91.10
2019-05-11T09:07:52.250Z,91.60
2019-05-11T09:10:23.414Z,91.70
2019-05-11T09:12:53.872Z,90.20
2019-05-11T09:15:34.818Z,90.90
2019-05-11T09:17:57.749Z,88.00
2019-05-11T09:20:28.657Z,87.00
2019-05-11T09:23:00.306Z,86.90
2019-05-11T09:25:30.796Z,84.10
2019-05-11T09:28:01.264Z,78.80
2019-05-11T09:30:31.819Z,74.70
2019-05-11T09:33:02.283Z,69.00
2019-05-11T09:35:46.789Z,68.00
2019-05-11T09:38:05.161Z,64.10
2019-05-11T09:40:35.664Z,66.50
2019-05-11T09:43:08.297Z,59.80
2019-05-11T09:45:48.339Z,59.60
2019-05-11T09:48:14.003Z,57.70
2019-05-11T09:50:44.493Z,59.60
2019-05-11T09:53:14.952Z,57.90
2019-05-11T09:55:47.964Z,54.90
2019-05-11T09:58:19.656Z,55.10
2019-05-11T10:00:50.661Z,55.80
2019-05-11T10:03:21.158Z,53.60
2019-05-11T10:05:52.070Z,52.80
2019-05-11T10:08:22.643Z,50.70
2019-05-11T10:10:53.137Z,51.20
2019-05-11T10:13:23.592Z,48.40
2019-05-11T10:16:04.543Z,47.40
2019-05-11T10:18:28.207Z,47.60
2019-05-11T10:21:00.837Z,46.90
2019-05-11T10:23:32.167Z,47.70
2019-05-11T10:26:02.624Z,46.70
2019-05-11T10:28:33.118Z,43.00
2019-05-11T10:31:05.477Z,44.30
2019-05-11T10:33:38.073Z,44.00
2019-05-11T10:36:08.961Z,44.40
2019-05-11T10:38:39.427Z,46.10
2019-05-11T10:41:11.552Z,45.60
2019-05-11T10:43:42.009Z,44.20
2019-05-11T10:46:19.542Z,45.00
2019-05-11T10:48:44.678Z,44.70
2019-05-11T10:51:15.178Z,46.20
2019-05-11T10:53:48.468Z,45.20
2019-05-11T10:56:18.110Z,46.30
2019-05-11T10:58:49.438Z,46.10
2019-05-11T11:01:21.109Z,45.00
2019-05-11T11:03:51.648Z,41.00
2019-05-11T11:06:23.038Z,41.40
2019-05-11T11:08:54.459Z,39.80
2019-05-11T11:11:27.748Z,39.30
2019-05-11T11:13:58.605Z,37.80
2019-05-11T11:16:36.918Z,39.00
2019-05-11T11:19:01.287Z,39.40
2019-05-11T11:21:31.774Z,39.30
2019-05-11T11:24:02.240Z,40.30
2019-05-11T11:26:32.724Z,37.80
2019-05-11T11:29:03.189Z,36.50
2019-05-11T11:31:33.671Z,37.80
2019-05-11T11:34:04.389Z,37.80
2019-05-11T11:36:34.873Z,35.70
2019-05-11T11:39:08.511Z,37.70
2019-05-11T11:41:40.751Z,36.60
2019-05-11T11:44:11.266Z,35.30
2019-05-11T11:46:53.858Z,34.40
2019-05-11T11:49:13.949Z,35.90
2019-05-11T11:51:44.413Z,36.20
2019-05-11T11:54:18.852Z,36.70
2019-05-11T11:56:49.343Z,38.30
2019-05-11T11:59:19.803Z,39.20
2019-05-11T12:01:50.310Z,40.40
2019-05-11T12:04:22.177Z,37.60
2019-05-11T12:06:53.776Z,37.30
2019-05-11T12:09:24.907Z,35.20
2019-05-11T12:11:57.862Z,36.10
2019-05-11T12:14:28.336Z,36.80
2019-05-11T12:17:07.518Z,38.00
2019-05-11T12:19:31.190Z,37.20
2019-05-11T12:22:01.696Z,36.50
2019-05-11T12:24:32.167Z,37.60
2019-05-11T12:27:02.662Z,38.20
2019-05-11T12:29:34.704Z,39.60
2019-05-11T12:32:08.179Z,40.00
2019-05-11T12:34:38.852Z,40.60
2019-05-11T12:37:09.325Z,41.80
2019-05-11T12:39:43.727Z,41.00
2019-05-11T12:42:14.355Z,40.50
2019-05-11T12:44:44.864Z,40.10
2019-05-11T12:47:24.140Z,41.60
2019-05-11T12:49:50.928Z,39.90
2019-05-11T12:52:23.317Z,40.40
2019-05-11T12:54:53.793Z,40.30
2019-05-11T12:57:24.260Z,38.40
2019-05-11T12:59:58.090Z,38.90
2019-05-11T13:02:28.109Z,39.50
2019-05-11T13:04:58.614Z,38.90
2019-05-11T13:07:29.135Z,39.40
2019-05-11T13:09:59.636Z,41.40
2019-05-11T13:12:30.104Z,41.80
2019-05-11T13:15:01.076Z,41.60
2019-05-11T13:17:36.998Z,41.60
2019-05-11T13:20:05.011Z,41.70
2019-05-11T13:22:37.962Z,42.80
2019-05-11T13:25:08.715Z,43.70
2019-05-11T13:27:40.622Z,44.00
2019-05-11T13:30:12.965Z,43.50
2019-05-11T13:32:43.462Z,43.00
2019-05-11T13:35:14.080Z,43.60
2019-05-11T13:37:44.579Z,43.60
2019-05-11T13:40:15.135Z,44.20
2019-05-11T13:42:48.720Z,44.00
2019-05-11T13:45:18.645Z,44.70
2019-05-11T13:47:55.277Z,43.30
2019-05-11T13:50:21.292Z,44.50
2019-05-11T13:52:51.827Z,45.00
2019-05-11T13:55:22.322Z,45.20
2019-05-11T13:57:54.332Z,45.80
2019-05-11T14:00:24.915Z,46.30
2019-05-11T14:02:58.622Z,46.10
2019-05-11T14:05:29.198Z,45.20
2019-05-11T14:07:59.670Z,45.60
2019-05-11T14:10:30.179Z,46.70
2019-05-11T14:13:00.649Z,45.40
2019-05-11T14:15:31.145Z,45.70
2019-05-11T14:18:08.227Z,46.80
2019-05-11T14:20:33.850Z,45.20
2019-05-11T14:23:04.633Z,44.50
2019-05-11T14:25:35.119Z,45.00
2019-05-11T14:28:08.807Z,44.60
2019-05-11T14:30:40.640Z,44.40
2019-05-11T14:33:11.212Z,44.30
2019-05-11T14:35:41.697Z,45.30
2019-05-11T14:38:12.187Z,44.70
2019-05-11T14:40:42.669Z,44.90
2019-05-11T14:43:13.158Z,45.90
2019-05-11T14:45:43.667Z,46.40
2019-05-11T14:48:25.921Z,47.00
2019-05-11T14:50:48.739Z,47.10
2019-05-11T14:53:18.614Z,46.10
2019-05-11T14:55:49.098Z,46.60
2019-05-11T14:58:20.104Z,47.40
2019-05-11T15:00:50.799Z,46.50
2019-05-11T15:03:21.261Z,46.70
2019-05-11T15:05:53.877Z,47.90
2019-05-11T15:08:24.380Z,48.20
2019-05-11T15:10:54.844Z,47.60
2019-05-11T15:13:28.821Z,47.50
2019-05-11T15:15:59.078Z,47.40
2019-05-11T15:18:38.598Z,47.80
2019-05-11T15:21:01.829Z,46.90
2019-05-11T15:23:32.332Z,47.30
2019-05-11T15:26:02.845Z,46.80
2019-05-11T15:28:33.323Z,48.00
2019-05-11T15:31:03.823Z,48.20
2019-05-11T15:33:34.296Z,47.40
2019-05-11T15:36:04.782Z,48.30
2019-05-11T15:38:37.685Z,49.80
2019-05-11T15:41:08.330Z,49.60
2019-05-11T15:43:38.977Z,50.10
2019-05-11T15:46:09.466Z,50.10
2019-05-11T15:48:55.878Z,50.80
2019-05-11T15:51:12.117Z,51.50
2019-05-11T15:53:42.603Z,52.00
2019-05-11T15:56:13.062Z,53.20
2019-05-11T15:58:43.553Z,54.00
2019-05-11T16:01:15.685Z,54.10
2019-05-11T16:03:49.655Z,54.70
2019-05-11T16:06:18.728Z,54.70
2019-05-11T16:08:49.363Z,54.90
2019-05-11T16:11:19.845Z,54.90
2019-05-11T16:13:50.300Z,54.50
2019-05-11T16:16:20.794Z,55.10
2019-05-11T16:18:51.327Z,56.10
2019-05-11T16:21:21.911Z,57.50
2019-05-11T16:23:52.513Z,59.20
2019-05-11T16:26:23.001Z,60.30
2019-05-11T16:28:53.459Z,62.60
2019-05-11T16:31:23.947Z,65.40
2019-05-11T16:33:54.409Z,69.90
2019-05-11T16:36:24.905Z,72.60
2019-05-11T16:38:55.362Z,74.50
2019-05-11T16:41:25.850Z,78.50
2019-05-11T16:43:58.360Z,78.60
2019-05-11T16:46:28.572Z,79.30
2019-05-11T16:48:59.027Z,80.30
2019-05-11T16:51:29.513Z,81.50
2019-05-11T16:53:59.970Z,82.30
2019-05-11T16:56:30.469Z,83.10
2019-05-11T16:59:02.786Z,84.30
2019-05-11T17:01:33.281Z,84.50
2019-05-11T17:04:03.759Z,86.90
2019-05-11T17:06:34.272Z,87.40
2019-05-11T17:09:08.758Z,88.60
2019-05-11T17:11:38.841Z,89.90
2019-05-11T17:14:09.300Z,90.90
2019-05-11T17:16:39.814Z,91.70
2019-05-11T17:19:10.279Z,91.90
2019-05-11T17:21:40.795Z,91.80
2019-05-11T17:24:11.249Z,91.80
2019-05-11T17:26:41.810Z,91.70
2019-05-11T17:29:12.269Z,92.70
2019-05-11T17:31:44.303Z,93.70
2019-05-11T17:34:17.916Z,94.10
2019-05-11T17:36:48.497Z,94.00
2019-05-11T17:39:19.005Z,94.10
2019-05-11T17:41:49.481Z,94.30
2019-05-11T17:44:19.979Z,94.50
2019-05-11T17:46:50.479Z,94.80
2019-05-11T17:49:20.950Z,95.20
2019-05-11T17:51:52.212Z,95.40
2019-05-11T17:54:22.804Z,95.00
2019-05-11T17:56:53.308Z,95.10
2019-05-11T17:59:23.763Z,96.20
2019-05-11T18:01:57.976Z,96.30
2019-05-11T18:04:27.918Z,96.70
2019-05-11T18:06:58.920Z,97.00
2019-05-11T18:09:29.444Z,97.00
2019-05-11T18:11:59.941Z,97.20
2019-05-11T18:14:30.425Z,97.40
2019-05-11T18:17:01.778Z,97.90
2019-05-11T18:19:33.551Z,98.20
2019-05-11T18:22:05.645Z,99.10
2019-05-11T18:24:38.199Z,98.80
2019-05-11T18:27:08.414Z,99.40
2019-05-11T18:29:38.884Z,99.90
2019-05-11T18:32:09.352Z,99.90
2019-05-11T18:34:39.914Z,99.90
2019-05-11T18:37:10.372Z,99.90
2019-05-11T18:39:40.865Z,99.90
2019-05-11T18:42:11.332Z,99.90
2019-05-11T18:44:41.811Z,99.90
2019-05-11T18:47:12.277Z,99.90
2019-05-11T18:49:42.859Z,99.90
2019-05-11T18:52:13.337Z,99.90
2019-05-11T18:54:47.864Z,99.90
2019-05-11T18:57:18.804Z,99.90
2019-05-11T18:59:49.412Z,99.90
2019-05-11T19:02:19.877Z,99.90
2019-05-11T19:04:50.367Z,99.90
2019-05-11T19:07:20.838Z,99.90
2019-05-11T19:09:51.329Z,99.90
2019-05-11T19:12:21.824Z,99.90
2019-05-11T19:14:52.315Z,99.90
2019-05-11T19:17:22.804Z,99.90
2019-05-11T19:19:57.858Z,99.90
2019-05-11T19:22:28.858Z,99.90
2019-05-11T19:25:01.068Z,99.90
2019-05-11T19:27:31.541Z,99.90
2019-05-11T19:30:02.026Z,99.90
2019-05-11T19:32:32.503Z,99.90
2019-05-11T19:35:02.974Z,99.90
2019-05-11T19:37:34.630Z,99.90
2019-05-11T19:40:08.778Z,99.90
2019-05-11T19:42:53.810Z,99.90
2019-05-11T19:45:24.934Z,99.90
2019-05-11T19:47:57.579Z,99.90
2019-05-11T19:50:27.604Z,99.90
2019-05-11T19:52:58.195Z,99.90
2019-05-11T19:55:28.773Z,99.90
2019-05-11T19:57:59.321Z,99.90
2019-05-11T20:00:29.809Z,99.90
2019-05-11T20:03:00.379Z,99.90
2019-05-11T20:05:30.902Z,99.90
2019-05-11T20:08:01.398Z,99.90
2019-05-11T20:10:31.909Z,99.90
2019-05-11T20:13:04.121Z,99.90
2019-05-11T20:15:34.582Z,99.90
2019-05-11T20:18:05.146Z,99.90
2019-05-11T20:20:37.583Z,99.90
2019-05-11T20:23:07.987Z,99.90
2019-05-11T20:25:38.441Z,99.90
2019-05-11T20:28:10.969Z,99.90
2019-05-11T20:30:41.438Z,99.90
2019-05-11T20:33:11.922Z,99.90
2019-05-11T20:35:42.392Z,99.90
2019-05-11T20:38:12.879Z,99.90
2019-05-11T20:40:45.229Z,99.90
2019-05-11T20:43:15.689Z,99.90
2019-05-11T20:45:48.519Z,99.90
2019-05-11T20:48:18.638Z,99.90
2019-05-11T20:50:49.324Z,99.90
2019-05-11T20:53:19.819Z,99.90
2019-05-11T20:55:50.286Z,99.90
2019-05-11T20:58:20.772Z,99.90
2019-05-11T21:00:51.234Z,99.90
2019-05-11T21:03:21.731Z,99.90
2019-05-11T21:05:52.184Z,99.90
2019-05-11T21:08:22.677Z,99.90
2019-05-11T21:10:53.144Z,99.90
2019-05-11T21:13:23.644Z,99.90
2019-05-11T21:15:54.804Z,99.90
2019-05-11T21:18:25.317Z,99.90
2019-05-11T21:20:57.679Z,99.90
2019-05-11T21:23:29.014Z,99.90
2019-05-11T21:25:59.640Z,99.90
2019-05-11T21:28:31.082Z,99.90
2019-05-11T21:31:03.214Z,99.90
2019-05-11T21:33:33.675Z,99.90
2019-05-11T21:36:04.168Z,99.90
2019-05-11T21:38:34.652Z,99.90
2019-05-11T21:41:05.207Z,99.90
2019-05-11T21:43:37.661Z,99.90
2019-05-11T21:46:08.349Z,99.90
2019-05-11T21:48:38.842Z,99.90
2019-05-11T21:51:09.335Z,99.90
2019-05-11T21:53:39.787Z,99.90
2019-05-11T21:56:10.298Z,99.90
2019-05-11T21:58:40.783Z,99.90
2019-05-11T22:01:11.549Z,99.90
2019-05-11T22:03:43.708Z,99.90
2019-05-11T22:06:14.200Z,99.90
2019-05-11T22:08:44.659Z,99.90
2019-05-11T22:11:18.025Z,99.90
2019-05-11T22:13:48.418Z,99.90
2019-05-11T22:16:19.055Z,99.90
2019-05-11T22:18:49.552Z,99.90
2019-05-11T22:21:21.404Z,99.90
2019-05-11T22:23:53.518Z,99.90
2019-05-11T22:26:23.982Z,99.90
2019-05-11T22:28:54.440Z,99.90
2019-05-11T22:31:24.937Z,99.90
2019-05-11T22:33:55.393Z,99.90
2019-05-11T22:36:28.132Z,99.90
2019-05-11T22:38:58.722Z,99.90
2019-05-11T22:41:29.515Z,99.90
2019-05-11T22:43:59.999Z,99.90
2019-05-11T22:46:30.464Z,99.90
2019-05-11T22:49:00.936Z,99.90
2019-05-11T22:51:31.402Z,99.90
2019-05-11T22:54:01.881Z,99.90
2019-05-11T22:56:32.341Z,99.90
2019-05-11T22:59:02.835Z,99.90
2019-05-11T23:01:33.320Z,99.90
2019-05-11T23:04:03.795Z,99.90
2019-05-11T23:06:34.252Z,99.90
2019-05-11T23:09:07.935Z,99.90
2019-05-11T23:11:38.540Z,99.90
2019-05-11T23:14:10.084Z,99.90
2019-05-11T23:16:40.768Z,99.90
2019-05-11T23:19:11.266Z,99.90
2019-05-11T23:21:42.301Z,99.90
2019-05-11T23:24:12.786Z,99.90
2019-05-11T23:26:43.252Z,99.90
2019-05-11T23:29:15.157Z,99.90
2019-05-11T23:31:47.729Z,99.90
2019-05-11T23:34:17.851Z,99.90
2019-05-11T23:36:48.739Z,99.90
2019-05-11T23:39:19.342Z,99.90
2019-05-11T23:41:51.351Z,99.90
2019-05-11T23:44:21.853Z,99.90
2019-05-11T23:46:53.875Z,99.90
2019-05-11T23:49:25.887Z,99.90
2019-05-11T23:51:56.386Z,99.90
2019-05-11T23:54:27.862Z,99.90
2019-05-11T23:56:58.445Z,99.90
2019-05-11T23:59:28.902Z,99.90
